METAR AND TAF INFORMATION
METAR FOR SBSP
ADDS - METARS form results

(1410 UTC 22 April 2018)
Data provider http://aviationweather.gov/adds/metars/
 
METAR text: SBSP 221400Z 06006KT 9999 SCT045 22/15 Q1022
Conditions at: SBSP (SAO PAULO/CONGON, BR) observed 1400 UTC 22 April 2018
Temperature: 22.0°C (72°F)
Dewpoint: 15.0°C (59°F) [RH = 65%]
Pressure (altimeter): 30.18 inches Hg (1022.0 mb)
Winds: from the ENE (60 degrees) at 7 MPH (6 knots; 3.1 m/s)
Visibility: 6 or more miles (10+ km)
Ceiling: at least 12,000 feet AGL
Clouds: scattered clouds at 4500 feet AGL
Weather: no significant weather observed at this time

Forecast for: SBSP (SAO PAULO/CONGON, BR)
Text: TAF SBSP 221022Z 2212/2312 08005KT CAVOK TX25/2217Z TN15/2309Z
Forecast period: 1200 to 1500 UTC 22 April 2018
Forecast type: FROM: standard forecast or significant change
Winds: from the E (80 degrees) at 6 MPH (5 knots; 2.6 m/s)
Visibility: 6 or more miles (10+ km)
Clouds: not forecast
Weather: no significant weather forecast for this period
Forecast for: SBSP (SAO PAULO/CONGON, BR)
Text: TAF SBSP 221022Z 2212/2312 08005KT CAVOK TX25/2217Z TN15/2309Z
Forecast period: 1200 to 1500 UTC 22 April 2018
Forecast type: FROM: standard forecast or significant change
Winds: from the E (80 degrees) at 6 MPH (5 knots; 2.6 m/s)
Visibility: 6 or more miles (10+ km)
Clouds: not forecast
Weather: no significant weather forecast for this period
Forecast for: SBSP (SAO PAULO/CONGON, BR)
Text: TAF SBSP 221022Z 2212/2312 08005KT CAVOK TX25/2217Z TN15/2309Z
Forecast period: 1500 to 1900 UTC 22 April 2018
Forecast type: BECOMING: Conditions expected to become as follows by 1700 UTC 22 April 2018
Winds: from the SSE (150 degrees) at 12 MPH (10 knots; 5.2 m/s)
Visibility: 6 or more miles (10+ km)
Clouds: scattered clouds at 3500 feet AGL
Weather: no significant weather forecast for this period
Forecast for: SBSP (SAO PAULO/CONGON, BR)
Text: TAF SBSP 221022Z 2212/2312 08005KT CAVOK TX25/2217Z TN15/2309Z
Forecast period: 1500 to 1900 UTC 22 April 2018
Forecast type: BECOMING: Conditions expected to become as follows by 1700 UTC 22 April 2018
Winds: from the SSE (150 degrees) at 12 MPH (10 knots; 5.2 m/s)
Visibility: 6 or more miles (10+ km)
Clouds: scattered clouds at 3500 feet AGL
Weather: no significant weather forecast for this period
Forecast for: SBSP (SAO PAULO/CONGON, BR)
Text: TAF SBSP 221022Z 2212/2312 08005KT CAVOK TX25/2217Z TN15/2309Z
Forecast period: 1900 UTC 22 April 2018 to 0000 UTC 23 April 2018
Forecast type: BECOMING: Conditions expected to become as follows by 2100 UTC 22 April 2018
Winds: from the SSE (150 degrees) at 12 MPH (10 knots; 5.2 m/s)
Visibility: 6 or more miles (10+ km)
Ceiling: 1300 feet AGL
Clouds: broken clouds at 1300 feet AGL
Weather: no significant weather forecast for this period
Forecast for: SBSP (SAO PAULO/CONGON, BR)
Text: TAF SBSP 221022Z 2212/2312 08005KT CAVOK TX25/2217Z TN15/2309Z
Forecast period: 1900 UTC 22 April 2018 to 0000 UTC 23 April 2018
Forecast type: BECOMING: Conditions expected to become as follows by 2100 UTC 22 April 2018
Winds: from the SSE (150 degrees) at 12 MPH (10 knots; 5.2 m/s)
Visibility: 6 or more miles (10+ km)
Ceiling: 1300 feet AGL
Clouds: broken clouds at 1300 feet AGL
Weather: no significant weather forecast for this period
Forecast for: SBSP (SAO PAULO/CONGON, BR)
Text: TAF SBSP 221022Z 2212/2312 08005KT CAVOK TX25/2217Z TN15/2309Z
Forecast period: 0000 to 0300 UTC 23 April 2018
Forecast type: BECOMING: Conditions expected to become as follows by 0200 UTC 23 April 2018
Winds: from the E (100 degrees) at 6 MPH (5 knots; 2.6 m/s)
Visibility: 6 or more miles (10+ km)
Clouds: few clouds at 1100 feet AGL
Weather: no significant weather forecast for this period
Forecast for: SBSP (SAO PAULO/CONGON, BR)
Text: TAF SBSP 221022Z 2212/2312 08005KT CAVOK TX25/2217Z TN15/2309Z
Forecast period: 0000 to 0300 UTC 23 April 2018
Forecast type: BECOMING: Conditions expected to become as follows by 0200 UTC 23 April 2018
Winds: from the E (100 degrees) at 6 MPH (5 knots; 2.6 m/s)
Visibility: 6 or more miles (10+ km)
Clouds: few clouds at 1100 feet AGL
Weather: no significant weather forecast for this period
Forecast for: SBSP (SAO PAULO/CONGON, BR)
Text: TAF SBSP 221022Z 2212/2312 08005KT CAVOK TX25/2217Z TN15/2309Z
Forecast period: 0300 to 1200 UTC 23 April 2018
Forecast type: BECOMING: Conditions expected to become as follows by 0500 UTC 23 April 2018
Winds: from the E (80 degrees) at 6 MPH (5 knots; 2.6 m/s)
Visibility: 6 or more miles (10+ km)
Ceiling: 900 feet AGL
Clouds: broken clouds at 900 feet AGL
Weather: no significant weather forecast for this period
Forecast for: SBSP (SAO PAULO/CONGON, BR)
Text: TAF SBSP 221022Z 2212/2312 08005KT CAVOK TX25/2217Z TN15/2309Z
Forecast period: 0300 to 1200 UTC 23 April 2018
Forecast type: BECOMING: Conditions expected to become as follows by 0500 UTC 23 April 2018
Winds: from the E (80 degrees) at 6 MPH (5 knots; 2.6 m/s)
Visibility: 6 or more miles (10+ km)
Ceiling: 900 feet AGL
Clouds: broken clouds at 900 feet AGL
Weather: no significant weather forecast for this period

 AIRPORT MAP

 RUNWAY INFORMATION
Runway 17L Runway length 4708 ft Runway width 148 ft
Runway elevation 0 ft Runway displaced threshold 0 ft Runway heading 0
Runway 35R Runway length 4708 ft Runway width 148 ft
Runway elevation 0 ft Runway displaced threshold 0 ft Runway heading 0
Runway 17R Runway length 6365 ft Runway width 148 ft
Runway elevation 0 ft Runway displaced threshold 0 ft Runway heading 0
Runway 35L Runway length 6365 ft Runway width 148 ft
Runway elevation 0 ft Runway displaced threshold 0 ft Runway heading 0

 AIRPORT FREQUENCIES
Type APP Name SAO PAULO Frequency 119.8 MHZ
Type ATIS Name ATIS Frequency 127.65 MHZ
Type CLD Name CLNC DEL Frequency 120.6 MHZ
Type GND Name GND Frequency 121.9 MHZ
Type TWR Name SAO PAULO Frequency 127.15 MHZ

 AIRPORT NEAR NAVIGATION AIDS
Type VOR-DME Name Congonhas Frequency 116900 KHZ
Type NDB Name Diadema Frequency 200 KHZ
Type NDB Name Mada Frequency 290 KHZ
Type NDB Name Metro Frequency 330 KHZ
Type NDB Name Sao Paulo Frequency 250 KHZ



Powered by Virtual Airlines Manager [v2.6.2]